Time,TemperatureF,DewpointF,PressureIn,WindDirection,WindDirectionDegrees,WindSpeedMPH,WindSpeedGustMPH,Humidity,HourlyPrecipIn,Conditions,Clouds,dailyrainin,SoftwareType,DateUTC
2013-03-20 00:00:00,19.2,8.4,28.94,NNW,338,8.1,11.0,62,0.00,,,0.00,VWS V14.01,2013-03-20 05:00:00,
2013-03-20 00:05:00,19.4,8.9,28.94,NW,315,10.3,12.3,63,0.00,,,0.00,VWS V14.01,2013-03-20 05:05:00,
2013-03-20 00:10:00,19.4,7.8,28.94,NW,315,9.8,19.0,60,0.00,,,0.00,VWS V14.01,2013-03-20 05:10:00,
2013-03-20 00:15:00,19.0,7.1,28.94,NNW,338,10.1,16.6,59,0.00,,,0.00,VWS V14.01,2013-03-20 05:15:00,
2013-03-20 00:20:00,18.5,5.8,28.94,NNW,338,10.7,12.5,57,0.00,,,0.00,VWS V14.01,2013-03-20 05:20:00,
2013-03-20 00:25:00,18.0,4.1,28.94,NW,315,15.4,16.8,54,0.00,,,0.00,VWS V14.01,2013-03-20 05:25:00,
2013-03-20 00:30:00,17.4,4.0,28.94,NW,315,10.3,16.3,55,0.00,,,0.00,VWS V14.01,2013-03-20 05:30:00,
2013-03-20 00:35:00,17.1,3.7,28.94,NNW,338,8.7,14.8,55,0.00,,,0.00,VWS V14.01,2013-03-20 05:35:00,
2013-03-20 00:40:00,17.1,4.1,28.94,NNW,338,8.7,13.0,56,0.00,,,0.00,VWS V14.01,2013-03-20 05:40:00,
2013-03-20 00:45:00,16.9,4.3,28.94,NNW,338,12.5,15.9,57,0.00,,,0.00,VWS V14.01,2013-03-20 05:45:00,
2013-03-20 00:50:00,16.9,4.3,28.94,NNW,338,11.0,17.5,57,0.00,,,0.00,VWS V14.01,2013-03-20 05:50:00,
2013-03-20 00:55:00,16.9,4.7,28.94,NNW,338,13.0,17.5,58,0.00,,,0.00,VWS V14.01,2013-03-20 05:55:00,
2013-03-20 01:00:00,16.7,4.1,28.94,NW,315,13.2,17.7,57,0.00,,,0.00,VWS V14.01,2013-03-20 06:00:00,
2013-03-20 01:05:00,16.9,4.3,28.94,WNW,292,13.0,15.2,57,0.00,,,0.00,VWS V14.01,2013-03-20 06:05:00,
2013-03-20 01:10:00,16.7,3.7,28.94,NNW,338,12.5,16.6,56,0.00,,,0.00,VWS V14.01,2013-03-20 06:10:00,
2013-03-20 01:15:00,16.7,4.5,28.94,NNW,338,10.1,15.2,58,0.00,,,0.00,VWS V14.01,2013-03-20 06:15:00,
2013-03-20 01:20:00,16.7,4.1,28.94,WNW,292,13.0,16.8,57,0.00,,,0.00,VWS V14.01,2013-03-20 06:20:00,
2013-03-20 01:25:00,16.7,4.1,28.94,NNW,338,9.8,14.8,57,0.00,,,0.00,VWS V14.01,2013-03-20 06:25:00,
2013-03-20 01:30:00,16.7,4.5,28.94,NNW,338,7.8,15.4,58,0.00,,,0.00,VWS V14.01,2013-03-20 06:30:00,
2013-03-20 01:35:00,16.7,5.2,28.94,NNW,338,11.0,13.2,60,0.00,,,0.00,VWS V14.01,2013-03-20 06:35:00,
2013-03-20 01:40:00,16.5,5.1,28.94,NNW,338,15.2,15.9,60,0.00,,,0.00,VWS V14.01,2013-03-20 06:40:00,
2013-03-20 01:45:00,16.5,5.4,28.94,NW,315,9.0,17.0,61,0.00,,,0.00,VWS V14.01,2013-03-20 06:45:00,
2013-03-20 01:50:00,16.5,5.4,28.94,NW,315,10.7,14.5,61,0.00,,,0.00,VWS V14.01,2013-03-20 06:50:00,
2013-03-20 01:55:00,16.5,5.8,28.94,NNW,338,10.1,17.2,62,0.00,,,0.00,VWS V14.01,2013-03-20 06:55:00,
2013-03-20 02:00:00,16.5,5.8,28.94,NNW,338,8.7,16.6,62,0.00,,,0.00,VWS V14.01,2013-03-20 07:00:00,
2013-03-20 02:05:00,16.5,3.6,28.94,NNW,338,14.8,17.2,56,0.00,,,0.00,VWS V14.01,2013-03-20 07:05:00,
2013-03-20 02:10:00,16.3,3.0,28.94,NW,315,13.0,17.5,55,0.00,,,0.00,VWS V14.01,2013-03-20 07:10:00,
2013-03-20 02:15:00,16.3,3.4,28.94,WNW,292,10.5,23.9,56,0.00,,,0.00,VWS V14.01,2013-03-20 07:15:00,
2013-03-20 02:20:00,16.3,3.0,28.94,NNW,338,16.6,19.2,55,0.00,,,0.00,VWS V14.01,2013-03-20 07:20:00,
2013-03-20 02:25:00,16.3,3.0,28.94,NNW,338,12.3,17.2,55,0.00,,,0.00,VWS V14.01,2013-03-20 07:25:00,
2013-03-20 02:30:00,16.2,3.6,28.94,WNW,292,12.5,17.5,57,0.00,,,0.00,VWS V14.01,2013-03-20 07:30:00,
2013-03-20 02:35:00,16.2,3.6,28.94,NW,315,12.5,22.6,57,0.00,,,0.00,VWS V14.01,2013-03-20 07:35:00,
2013-03-20 02:40:00,16.0,4.9,28.97,WNW,292,22.6,22.6,61,0.00,,,0.00,VWS V14.01,2013-03-20 07:40:00,
2013-03-20 02:45:00,15.8,3.3,28.97,WNW,292,19.9,22.6,57,0.00,,,0.00,VWS V14.01,2013-03-20 07:45:00,
2013-03-20 02:50:00,15.6,2.3,28.97,NW,315,15.4,22.2,55,0.00,,,0.00,VWS V14.01,2013-03-20 07:50:00,
2013-03-20 02:55:00,15.4,2.2,28.94,NW,315,19.2,22.4,55,0.00,,,0.00,VWS V14.01,2013-03-20 07:55:00,
2013-03-20 03:00:00,15.4,2.2,28.94,WNW,292,12.8,19.7,55,0.00,,,0.00,VWS V14.01,2013-03-20 08:00:00,
2013-03-20 03:05:00,15.3,1.6,28.94,NW,315,19.7,23.9,54,0.00,,,0.00,VWS V14.01,2013-03-20 08:05:00,
2013-03-20 03:10:00,15.3,2.4,28.94,NW,315,17.5,19.7,56,0.00,,,0.00,VWS V14.01,2013-03-20 08:10:00,
2013-03-20 03:15:00,15.1,2.6,28.94,NW,315,16.6,20.8,57,0.00,,,0.00,VWS V14.01,2013-03-20 08:15:00,
2013-03-20 03:20:00,15.1,3.0,28.94,NW,315,16.8,24.2,58,0.00,,,0.00,VWS V14.01,2013-03-20 08:20:00,
2013-03-20 03:25:00,15.1,3.3,28.94,NW,315,19.7,22.8,59,0.00,,,0.00,VWS V14.01,2013-03-20 08:25:00,
2013-03-20 03:30:00,14.9,3.2,28.94,NW,315,14.8,19.7,59,0.00,,,0.00,VWS V14.01,2013-03-20 08:30:00,
2013-03-20 03:35:00,14.5,3.2,28.94,WNW,292,11.0,17.2,60,0.00,,,0.00,VWS V14.01,2013-03-20 08:35:00,
2013-03-20 03:40:00,14.2,2.1,28.94,NNW,338,11.0,18.6,58,0.00,,,0.00,VWS V14.01,2013-03-20 08:40:00,
2013-03-20 03:45:00,14.0,2.0,28.94,NNW,338,10.7,14.3,58,0.00,,,0.00,VWS V14.01,2013-03-20 08:45:00,
2013-03-20 03:50:00,14.0,2.3,28.94,WNW,292,13.2,19.7,59,0.00,,,0.00,VWS V14.01,2013-03-20 08:50:00,
2013-03-20 03:55:00,13.6,2.0,28.94,NW,315,16.8,19.7,59,0.00,,,0.00,VWS V14.01,2013-03-20 08:55:00,
2013-03-20 04:00:00,13.5,1.8,28.94,WNW,292,17.2,20.8,59,0.00,,,0.00,VWS V14.01,2013-03-20 09:00:00,
2013-03-20 04:05:00,13.5,1.8,28.94,WNW,292,10.7,17.2,59,0.00,,,0.00,VWS V14.01,2013-03-20 09:05:00,
2013-03-20 04:10:00,13.5,1.8,28.97,NW,315,17.0,17.2,59,0.00,,,0.00,VWS V14.01,2013-03-20 09:10:00,
2013-03-20 04:15:00,13.3,1.6,28.97,NNW,338,8.7,17.0,59,0.00,,,0.00,VWS V14.01,2013-03-20 09:15:00,
2013-03-20 04:20:00,13.3,1.6,28.97,NW,315,8.7,13.2,59,0.00,,,0.00,VWS V14.01,2013-03-20 09:20:00,
2013-03-20 04:25:00,12.9,1.3,28.94,NNW,338,13.2,14.8,59,0.00,,,0.00,VWS V14.01,2013-03-20 09:25:00,
2013-03-20 04:30:00,12.6,1.0,28.94,NW,315,12.5,15.9,59,0.00,,,0.00,VWS V14.01,2013-03-20 09:30:00,
2013-03-20 04:35:00,12.4,0.8,28.94,WNW,292,12.3,13.6,59,0.00,,,0.00,VWS V14.01,2013-03-20 09:35:00,
2013-03-20 04:40:00,12.2,0.6,28.94,NW,315,12.3,15.4,59,0.00,,,0.00,VWS V14.01,2013-03-20 09:40:00,
2013-03-20 04:45:00,12.0,0.4,28.94,WNW,292,12.5,15.2,59,0.00,,,0.00,VWS V14.01,2013-03-20 09:45:00,
2013-03-20 04:50:00,11.8,0.3,28.94,NW,315,12.1,13.6,59,0.00,,,0.00,VWS V14.01,2013-03-20 09:50:00,
2013-03-20 04:55:00,11.8,0.3,28.94,NNW,338,10.5,15.2,59,0.00,,,0.00,VWS V14.01,2013-03-20 09:55:00,
2013-03-20 05:00:00,11.8,0.3,28.94,WNW,292,9.8,16.6,59,0.00,,,0.00,VWS V14.01,2013-03-20 10:00:00,
2013-03-20 05:05:00,11.7,0.1,28.94,NW,315,14.5,14.5,59,0.00,,,0.00,VWS V14.01,2013-03-20 10:05:00,
2013-03-20 05:10:00,11.7,0.1,28.97,NW,315,8.5,19.7,59,0.00,,,0.00,VWS V14.01,2013-03-20 10:10:00,
2013-03-20 05:15:00,11.7,0.1,28.97,WNW,292,10.5,17.0,59,0.00,,,0.00,VWS V14.01,2013-03-20 10:15:00,
2013-03-20 05:20:00,11.3,-0.2,28.97,NNW,338,10.3,14.3,59,0.00,,,0.00,VWS V14.01,2013-03-20 10:20:00,
2013-03-20 05:25:00,11.3,-0.2,28.97,WNW,292,12.3,17.0,59,0.00,,,0.00,VWS V14.01,2013-03-20 10:25:00,
2013-03-20 05:30:00,11.3,-0.2,28.97,NW,315,12.8,15.2,59,0.00,,,0.00,VWS V14.01,2013-03-20 10:30:00,
2013-03-20 05:35:00,11.3,-0.2,28.97,WNW,292,12.5,14.5,59,0.00,,,0.00,VWS V14.01,2013-03-20 10:35:00,
2013-03-20 05:40:00,11.1,-0.4,28.97,WNW,292,7.4,17.5,59,0.00,,,0.00,VWS V14.01,2013-03-20 10:40:00,
2013-03-20 05:45:00,11.1,-0.4,28.97,NW,315,10.7,16.6,59,0.00,,,0.00,VWS V14.01,2013-03-20 10:45:00,
2013-03-20 05:50:00,10.9,-0.6,28.97,NW,315,12.3,12.5,59,0.00,,,0.00,VWS V14.01,2013-03-20 10:50:00,
2013-03-20 05:55:00,10.9,-0.6,28.97,NW,315,7.6,12.5,59,0.00,,,0.00,VWS V14.01,2013-03-20 10:55:00,
2013-03-20 06:00:00,10.9,-0.6,28.97,WNW,292,10.3,14.3,59,0.00,,,0.00,VWS V14.01,2013-03-20 11:00:00,
2013-03-20 06:05:00,10.9,-0.6,28.97,WNW,292,9.6,17.7,59,0.00,,,0.00,VWS V14.01,2013-03-20 11:05:00,
2013-03-20 06:10:00,10.9,-0.6,28.97,WNW,292,17.9,17.9,59,0.00,,,0.00,VWS V14.01,2013-03-20 11:10:00,
2013-03-20 06:15:00,10.8,-0.7,28.97,NNW,338,15.4,17.9,59,0.00,,,0.00,VWS V14.01,2013-03-20 11:15:00,
2013-03-20 06:20:00,10.8,-0.7,28.97,WNW,292,12.5,17.7,59,0.00,,,0.00,VWS V14.01,2013-03-20 11:20:00,
2013-03-20 06:25:00,10.8,-0.7,28.97,WNW,292,13.2,19.0,59,0.00,,,0.00,VWS V14.01,2013-03-20 11:25:00,
2013-03-20 06:30:00,10.8,-0.7,28.97,WNW,292,17.2,20.1,59,0.00,,,0.00,VWS V14.01,2013-03-20 11:30:00,
2013-03-20 06:35:00,10.6,-0.9,28.97,WNW,292,17.7,17.7,59,0.00,,,0.00,VWS V14.01,2013-03-20 11:35:00,
2013-03-20 06:40:00,10.6,-0.9,28.97,WNW,292,12.8,17.7,59,0.00,,,0.00,VWS V14.01,2013-03-20 11:40:00,
2013-03-20 06:45:00,10.6,-0.9,28.97,WNW,292,10.5,18.8,59,0.00,,,0.00,VWS V14.01,2013-03-20 11:45:00,
2013-03-20 06:50:00,10.4,-1.1,28.97,WNW,292,13.2,17.2,59,0.00,,,0.00,VWS V14.01,2013-03-20 11:50:00,
2013-03-20 06:55:00,10.4,-1.1,28.97,NW,315,13.6,16.8,59,0.00,,,0.00,VWS V14.01,2013-03-20 11:55:00,
2013-03-20 07:00:00,10.4,-1.1,28.97,WNW,292,16.1,16.1,59,0.00,,,0.00,VWS V14.01,2013-03-20 12:00:00,
2013-03-20 07:05:00,10.4,-1.1,28.97,NW,315,8.1,22.2,59,0.00,,,0.00,VWS V14.01,2013-03-20 12:05:00,
2013-03-20 07:10:00,10.2,-1.2,28.97,NNW,338,8.7,17.7,59,0.00,,,0.00,VWS V14.01,2013-03-20 12:10:00,
2013-03-20 07:15:00,10.2,-1.2,28.97,WNW,292,10.3,15.7,59,0.00,,,0.00,VWS V14.01,2013-03-20 12:15:00,
2013-03-20 07:20:00,10.2,-1.2,28.97,WNW,292,13.0,16.3,59,0.00,,,0.00,VWS V14.01,2013-03-20 12:20:00,
2013-03-20 07:25:00,10.2,-1.2,28.97,WNW,292,13.0,16.3,59,0.00,,,0.00,VWS V14.01,2013-03-20 12:25:00,
2013-03-20 07:30:00,10.4,-1.1,28.97,WNW,292,19.9,20.1,59,0.00,,,0.00,VWS V14.01,2013-03-20 12:30:00,
2013-03-20 07:35:00,10.8,-0.7,28.97,WNW,292,10.7,19.9,59,0.00,,,0.00,VWS V14.01,2013-03-20 12:35:00,
2013-03-20 07:40:00,11.1,-0.4,29.00,WNW,292,16.3,19.0,59,0.00,,,0.00,VWS V14.01,2013-03-20 12:40:00,
2013-03-20 07:45:00,11.3,-0.2,29.00,WNW,292,17.5,19.2,59,0.00,,,0.00,VWS V14.01,2013-03-20 12:45:00,
2013-03-20 07:50:00,11.7,0.1,29.00,WNW,292,17.2,17.5,59,0.00,,,0.00,VWS V14.01,2013-03-20 12:50:00,
2013-03-20 07:55:00,12.0,0.4,29.00,NW,315,15.2,17.9,59,0.00,,,0.00,VWS V14.01,2013-03-20 12:55:00,
2013-03-20 08:00:00,12.2,0.6,29.00,West,270,10.1,18.8,59,0.00,,,0.00,VWS V14.01,2013-03-20 13:00:00,
2013-03-20 08:05:00,12.7,1.1,29.00,NW,315,10.1,16.1,59,0.00,,,0.00,VWS V14.01,2013-03-20 13:05:00,
2013-03-20 08:10:00,13.3,1.6,29.00,WNW,292,11.0,17.5,59,0.00,,,0.00,VWS V14.01,2013-03-20 13:10:00,
2013-03-20 08:15:00,13.8,2.2,29.00,WNW,292,7.6,13.2,59,0.00,,,0.00,VWS V14.01,2013-03-20 13:15:00,
2013-03-20 08:20:00,14.2,-1.0,29.00,NW,315,8.1,13.0,50,0.00,,,0.00,VWS V14.01,2013-03-20 13:20:00,
2013-03-20 08:25:00,14.4,-1.3,29.00,NW,315,9.8,14.5,49,0.00,,,0.00,VWS V14.01,2013-03-20 13:25:00,
2013-03-20 08:30:00,14.9,-1.2,29.00,NW,315,9.2,11.2,48,0.00,,,0.00,VWS V14.01,2013-03-20 13:30:00,
2013-03-20 08:35:00,15.1,-1.1,29.00,NW,315,9.4,17.5,48,0.00,,,0.00,VWS V14.01,2013-03-20 13:35:00,
2013-03-20 08:40:00,15.4,-0.7,28.97,NNW,338,7.8,14.5,48,0.00,,,0.00,VWS V14.01,2013-03-20 13:40:00,
2013-03-20 08:45:00,15.4,-0.7,28.97,NW,315,10.1,16.8,48,0.00,,,0.00,VWS V14.01,2013-03-20 13:45:00,
2013-03-20 08:50:00,15.8,-0.9,28.97,NW,315,12.8,15.2,47,0.00,,,0.00,VWS V14.01,2013-03-20 13:50:00,
2013-03-20 08:55:00,16.2,-1.0,28.97,WNW,292,10.1,13.9,46,0.00,,,0.00,VWS V14.01,2013-03-20 13:55:00,
2013-03-20 09:00:00,16.9,-0.3,28.97,WNW,292,10.3,13.2,46,0.00,,,0.00,VWS V14.01,2013-03-20 14:00:00,
2013-03-20 09:05:00,17.2,-0.4,28.97,NNW,338,7.8,13.0,45,0.00,,,0.00,VWS V14.01,2013-03-20 14:05:00,
2013-03-20 09:10:00,16.9,-0.8,28.97,WNW,292,12.8,17.7,45,0.00,,,0.00,VWS V14.01,2013-03-20 14:10:00,
2013-03-20 09:15:00,17.1,-0.1,28.97,WNW,292,10.7,21.0,46,0.00,,,0.00,VWS V14.01,2013-03-20 14:15:00,
2013-03-20 09:20:00,17.1,-0.6,28.97,WNW,292,13.9,20.8,45,0.00,,,0.00,VWS V14.01,2013-03-20 14:20:00,
2013-03-20 09:25:00,16.9,-0.8,28.97,WNW,292,13.2,20.8,45,0.00,,,0.00,VWS V14.01,2013-03-20 14:25:00,
2013-03-20 09:30:00,17.4,-0.3,28.97,NW,315,10.1,18.8,45,0.00,,,0.00,VWS V14.01,2013-03-20 14:30:00,
2013-03-20 09:35:00,17.4,-0.8,28.97,WNW,292,16.3,19.9,44,0.00,,,0.00,VWS V14.01,2013-03-20 14:35:00,
2013-03-20 09:40:00,17.8,-0.4,28.97,NW,315,10.3,22.2,44,0.00,,,0.00,VWS V14.01,2013-03-20 14:40:00,
2013-03-20 09:45:00,18.5,0.7,28.97,WNW,292,18.6,19.5,45,0.00,,,0.00,VWS V14.01,2013-03-20 14:45:00,
2013-03-20 09:50:00,19.4,1.1,28.97,WNW,292,15.2,18.6,44,0.00,,,0.00,VWS V14.01,2013-03-20 14:50:00,
2013-03-20 09:55:00,20.1,1.7,28.97,WNW,292,9.8,17.7,44,0.00,,,0.00,VWS V14.01,2013-03-20 14:55:00,
2013-03-20 10:00:00,19.8,1.4,28.97,WNW,292,17.2,17.5,44,0.00,,,0.00,VWS V14.01,2013-03-20 15:00:00,
2013-03-20 10:05:00,20.1,1.2,28.97,WNW,292,9.8,17.5,43,0.00,,,0.00,VWS V14.01,2013-03-20 15:05:00,
2013-03-20 10:10:00,19.8,0.9,28.97,NW,315,12.3,20.8,43,0.00,,,0.00,VWS V14.01,2013-03-20 15:10:00,
2013-03-20 10:15:00,20.3,1.4,28.97,NW,315,10.3,17.9,43,0.00,,,0.00,VWS V14.01,2013-03-20 15:15:00,
2013-03-20 10:20:00,20.1,1.2,28.97,WNW,292,14.8,19.0,43,0.00,,,0.00,VWS V14.01,2013-03-20 15:20:00,
2013-03-20 10:25:00,21.2,2.2,28.97,WNW,292,9.6,15.7,43,0.00,,,0.00,VWS V14.01,2013-03-20 15:25:00,
2013-03-20 10:30:00,21.4,2.4,28.97,NNW,338,15.4,17.7,43,0.00,,,0.00,VWS V14.01,2013-03-20 15:30:00,
2013-03-20 10:35:00,20.8,1.4,28.97,NW,315,12.3,20.1,42,0.00,,,0.00,VWS V14.01,2013-03-20 15:35:00,
2013-03-20 10:40:00,21.4,1.9,28.97,NW,315,13.0,17.5,42,0.00,,,0.00,VWS V14.01,2013-03-20 15:40:00,
2013-03-20 10:45:00,21.7,2.2,28.97,WNW,292,13.0,17.5,42,0.00,,,0.00,VWS V14.01,2013-03-20 15:45:00,
2013-03-20 10:50:00,22.3,2.7,28.97,WNW,292,13.2,13.6,42,0.00,,,0.00,VWS V14.01,2013-03-20 15:50:00,
2013-03-20 10:55:00,21.9,2.4,28.97,NW,315,15.2,22.6,42,0.00,,,0.00,VWS V14.01,2013-03-20 15:55:00,
2013-03-20 11:00:00,22.8,3.2,28.97,WNW,292,15.2,16.8,42,0.00,,,0.00,VWS V14.01,2013-03-20 16:00:00,
2013-03-20 11:05:00,22.6,2.5,28.97,NW,315,13.6,21.9,41,0.00,,,0.00,VWS V14.01,2013-03-20 16:05:00,
2013-03-20 11:10:00,22.8,2.7,28.97,WNW,292,12.5,17.5,41,0.00,,,0.00,VWS V14.01,2013-03-20 16:10:00,
2013-03-20 11:15:00,23.7,4.0,28.97,NNW,338,9.8,17.2,42,0.00,,,0.00,VWS V14.01,2013-03-20 16:15:00,
2013-03-20 11:20:00,24.3,4.5,28.97,WNW,292,10.7,15.9,42,0.00,,,0.00,VWS V14.01,2013-03-20 16:20:00,
2013-03-20 11:25:00,24.4,4.7,28.97,NW,315,13.0,15.4,42,0.00,,,0.00,VWS V14.01,2013-03-20 16:25:00,
2013-03-20 11:30:00,23.9,2.6,28.97,NNW,338,9.2,23.0,39,0.00,,,0.00,VWS V14.01,2013-03-20 16:30:00,
2013-03-20 11:35:00,23.7,3.5,28.97,WNW,292,19.9,19.9,41,0.00,,,0.00,VWS V14.01,2013-03-20 16:35:00,
2013-03-20 11:40:00,24.4,3.6,28.97,NW,315,11.2,20.4,40,0.00,,,0.00,VWS V14.01,2013-03-20 16:40:00,
2013-03-20 11:45:00,24.8,4.4,28.97,NNW,338,10.5,20.6,41,0.00,,,0.00,VWS V14.01,2013-03-20 16:45:00,
2013-03-20 11:50:00,23.4,2.6,28.97,NW,315,8.7,15.2,40,0.00,,,0.00,VWS V14.01,2013-03-20 16:50:00,
2013-03-20 11:55:00,24.8,4.4,28.94,NW,315,10.1,12.8,41,0.00,,,0.00,VWS V14.01,2013-03-20 16:55:00,
2013-03-20 12:00:00,25.3,4.4,28.94,NNW,338,14.5,17.9,40,0.00,,,0.00,VWS V14.01,2013-03-20 17:00:00,
2013-03-20 12:05:00,24.4,3.6,28.94,WNW,292,17.7,17.7,40,0.00,,,0.00,VWS V14.01,2013-03-20 17:05:00,
2013-03-20 12:10:00,25.3,4.4,28.97,NNW,338,16.6,17.7,40,0.00,,,0.00,VWS V14.01,2013-03-20 17:10:00,
2013-03-20 12:15:00,26.2,5.8,28.97,NW,315,13.0,17.9,41,0.00,,,0.00,VWS V14.01,2013-03-20 17:15:00,
2013-03-20 12:20:00,26.2,5.8,28.97,WNW,292,10.3,22.2,41,0.00,,,0.00,VWS V14.01,2013-03-20 17:20:00,
2013-03-20 12:25:00,25.9,5.4,28.94,NNW,338,11.4,21.9,41,0.00,,,0.00,VWS V14.01,2013-03-20 17:25:00,
2013-03-20 12:30:00,25.7,4.2,28.94,NW,315,10.7,17.7,39,0.00,,,0.00,VWS V14.01,2013-03-20 17:30:00,
2013-03-20 12:35:00,26.1,5.6,28.94,WNW,292,11.0,20.1,41,0.00,,,0.00,VWS V14.01,2013-03-20 17:35:00,
2013-03-20 12:40:00,26.2,5.8,28.94,WNW,292,12.3,23.3,41,0.00,,,0.00,VWS V14.01,2013-03-20 17:40:00,
2013-03-20 12:45:00,27.1,6.0,28.94,NW,315,9.4,17.2,40,0.00,,,0.00,VWS V14.01,2013-03-20 17:45:00,
2013-03-20 12:50:00,27.0,5.3,28.94,NW,315,12.8,20.6,39,0.00,,,0.00,VWS V14.01,2013-03-20 17:50:00,
2013-03-20 12:55:00,25.7,5.3,28.94,WNW,292,13.9,23.3,41,0.00,,,0.00,VWS V14.01,2013-03-20 17:55:00,
2013-03-20 13:00:00,26.4,5.4,28.94,WNW,292,17.5,20.8,40,0.00,,,0.00,VWS V14.01,2013-03-20 18:00:00,
2013-03-20 13:05:00,27.0,6.4,28.94,NNW,338,17.0,21.3,41,0.00,,,0.00,VWS V14.01,2013-03-20 18:05:00,
2013-03-20 13:10:00,27.1,5.5,28.91,WNW,292,12.5,19.7,39,0.00,,,0.00,VWS V14.01,2013-03-20 18:10:00,
2013-03-20 13:15:00,27.0,6.4,28.91,NW,315,16.6,23.3,41,0.00,,,0.00,VWS V14.01,2013-03-20 18:15:00,
2013-03-20 13:20:00,27.5,5.8,28.91,WNW,292,10.7,19.5,39,0.00,,,0.00,VWS V14.01,2013-03-20 18:20:00,
2013-03-20 13:25:00,27.9,7.2,28.91,NW,315,19.9,19.9,41,0.00,,,0.00,VWS V14.01,2013-03-20 18:25:00,
2013-03-20 13:30:00,28.0,6.8,28.91,NW,315,8.1,19.9,40,0.00,,,0.00,VWS V14.01,2013-03-20 18:30:00,
2013-03-20 13:35:00,26.6,5.6,28.91,NW,315,12.3,13.6,40,0.00,,,0.00,VWS V14.01,2013-03-20 18:35:00,
2013-03-20 13:40:00,25.2,4.8,28.91,WNW,292,17.5,20.4,41,0.00,,,0.00,VWS V14.01,2013-03-20 18:40:00,
2013-03-20 13:45:00,27.3,6.7,28.91,WNW,292,13.2,23.3,41,0.00,,,0.00,VWS V14.01,2013-03-20 18:45:00,
2013-03-20 13:50:00,27.9,7.2,28.91,NW,315,11.4,20.1,41,0.00,,,0.00,VWS V14.01,2013-03-20 18:50:00,
2013-03-20 13:55:00,25.7,5.3,28.91,NNW,338,12.1,16.6,41,0.00,,,0.00,VWS V14.01,2013-03-20 18:55:00,
2013-03-20 14:00:00,27.0,6.4,28.91,WNW,292,10.3,20.8,41,0.00,,,0.00,VWS V14.01,2013-03-20 19:00:00,
2013-03-20 14:05:00,26.8,5.7,28.91,WNW,292,12.5,15.4,40,0.00,,,0.00,VWS V14.01,2013-03-20 19:05:00,
2013-03-20 14:10:00,26.1,6.6,28.91,WNW,292,14.1,19.9,43,0.00,,,0.00,VWS V14.01,2013-03-20 19:10:00,
2013-03-20 14:15:00,27.0,6.4,28.91,WNW,292,10.3,18.1,41,0.00,,,0.00,VWS V14.01,2013-03-20 19:15:00,
2013-03-20 14:20:00,26.6,6.1,28.91,NNW,338,15.4,17.2,41,0.00,,,0.00,VWS V14.01,2013-03-20 19:20:00,
2013-03-20 14:25:00,25.5,5.1,28.91,NW,315,16.3,19.9,41,0.00,,,0.00,VWS V14.01,2013-03-20 19:25:00,
2013-03-20 14:30:00,25.7,5.8,28.91,NW,315,25.1,25.1,42,0.00,,,0.00,VWS V14.01,2013-03-20 19:30:00,
2013-03-20 14:35:00,26.2,6.3,28.91,WNW,292,14.3,25.1,42,0.00,,,0.00,VWS V14.01,2013-03-20 19:35:00,
2013-03-20 14:40:00,27.0,6.4,28.88,WNW,292,12.5,19.9,41,0.00,,,0.00,VWS V14.01,2013-03-20 19:40:00,
2013-03-20 14:45:00,28.0,7.9,28.88,WNW,292,10.5,23.5,42,0.00,,,0.00,VWS V14.01,2013-03-20 19:45:00,
2013-03-20 14:50:00,27.9,7.2,28.88,WNW,292,19.9,22.2,41,0.00,,,0.00,VWS V14.01,2013-03-20 19:50:00,
2013-03-20 14:55:00,27.0,6.9,28.88,WNW,292,10.3,20.8,42,0.00,,,0.00,VWS V14.01,2013-03-20 19:55:00,
2013-03-20 15:00:00,29.3,8.5,28.88,WNW,292,17.7,17.7,41,0.00,,,0.00,VWS V14.01,2013-03-20 20:00:00,
2013-03-20 15:05:00,27.5,6.9,28.88,WNW,292,16.6,20.8,41,0.00,,,0.00,VWS V14.01,2013-03-20 20:05:00,
2013-03-20 15:10:00,24.6,4.8,28.88,WNW,292,16.3,19.5,42,0.00,,,0.00,VWS V14.01,2013-03-20 20:10:00,
2013-03-20 15:15:00,26.1,5.6,28.88,WNW,292,15.9,16.3,41,0.00,,,0.00,VWS V14.01,2013-03-20 20:15:00,
2013-03-20 15:20:00,26.4,6.4,28.88,NW,315,10.3,15.9,42,0.00,,,0.00,VWS V14.01,2013-03-20 20:20:00,
2013-03-20 15:25:00,26.2,6.3,28.88,NW,315,8.1,20.1,42,0.00,,,0.00,VWS V14.01,2013-03-20 20:25:00,
2013-03-20 15:30:00,25.7,5.8,28.88,NNW,338,11.0,21.3,42,0.00,,,0.00,VWS V14.01,2013-03-20 20:30:00,
2013-03-20 15:35:00,25.3,5.5,28.88,WNW,292,12.5,17.7,42,0.00,,,0.00,VWS V14.01,2013-03-20 20:35:00,
2013-03-20 15:40:00,26.8,6.8,28.85,NW,315,13.4,16.3,42,0.00,,,0.00,VWS V14.01,2013-03-20 20:40:00,
2013-03-20 15:45:00,27.0,6.4,28.85,NW,315,14.3,14.3,41,0.00,,,0.00,VWS V14.01,2013-03-20 20:45:00,
2013-03-20 15:50:00,26.1,6.1,28.85,WNW,292,17.5,21.0,42,0.00,,,0.00,VWS V14.01,2013-03-20 20:50:00,
2013-03-20 15:55:00,27.5,7.4,28.85,WNW,292,11.9,20.4,42,0.00,,,0.00,VWS V14.01,2013-03-20 20:55:00,
2013-03-20 16:00:00,29.1,8.4,28.85,NW,315,12.8,20.4,41,0.00,,,0.00,VWS V14.01,2013-03-20 21:00:00,
2013-03-20 16:05:00,30.7,9.8,28.85,WNW,292,15.4,15.4,41,0.00,,,0.00,VWS V14.01,2013-03-20 21:05:00,
2013-03-20 16:10:00,27.5,7.4,28.85,WNW,292,10.3,19.7,42,0.00,,,0.00,VWS V14.01,2013-03-20 21:10:00,
2013-03-20 16:15:00,26.1,6.1,28.85,WNW,292,12.3,17.7,42,0.00,,,0.00,VWS V14.01,2013-03-20 21:15:00,
2013-03-20 16:20:00,25.3,5.5,28.85,NW,315,10.3,15.4,42,0.00,,,0.00,VWS V14.01,2013-03-20 21:20:00,
2013-03-20 16:25:00,26.8,6.8,28.85,WNW,292,15.2,17.9,42,0.00,,,0.00,VWS V14.01,2013-03-20 21:25:00,
2013-03-20 16:30:00,26.6,6.6,28.85,NW,315,7.6,17.0,42,0.00,,,0.00,VWS V14.01,2013-03-20 21:30:00,
2013-03-20 16:35:00,26.6,6.6,28.85,WNW,292,9.2,15.4,42,0.00,,,0.00,VWS V14.01,2013-03-20 21:35:00,
2013-03-20 16:40:00,26.6,6.6,28.85,WNW,292,21.5,21.5,42,0.00,,,0.00,VWS V14.01,2013-03-20 21:40:00,
2013-03-20 16:45:00,26.2,6.3,28.85,NNW,338,13.0,21.5,42,0.00,,,0.00,VWS V14.01,2013-03-20 21:45:00,
2013-03-20 16:50:00,28.0,7.4,28.85,WNW,292,13.2,15.7,41,0.00,,,0.00,VWS V14.01,2013-03-20 21:50:00,
2013-03-20 16:55:00,29.3,8.5,28.85,NNW,338,7.6,17.0,41,0.00,,,0.00,VWS V14.01,2013-03-20 21:55:00,
2013-03-20 17:00:00,28.4,7.7,28.85,WNW,292,16.1,16.8,41,0.00,,,0.00,VWS V14.01,2013-03-20 22:00:00,
2013-03-20 17:05:00,27.9,7.2,28.85,NW,315,12.8,16.1,41,0.00,,,0.00,VWS V14.01,2013-03-20 22:05:00,
2013-03-20 17:10:00,26.4,6.4,28.85,WNW,292,17.5,22.2,42,0.00,,,0.00,VWS V14.01,2013-03-20 22:10:00,
2013-03-20 17:15:00,27.5,6.9,28.85,WNW,292,13.0,22.6,41,0.00,,,0.00,VWS V14.01,2013-03-20 22:15:00,
2013-03-20 17:20:00,25.7,5.8,28.85,WNW,292,10.5,21.0,42,0.00,,,0.00,VWS V14.01,2013-03-20 22:20:00,
2013-03-20 17:25:00,25.3,5.5,28.85,NW,315,13.9,16.8,42,0.00,,,0.00,VWS V14.01,2013-03-20 22:25:00,
2013-03-20 17:30:00,26.4,6.4,28.85,NW,315,12.3,13.9,42,0.00,,,0.00,VWS V14.01,2013-03-20 22:30:00,
2013-03-20 17:35:00,26.6,6.6,28.85,NW,315,10.5,12.3,42,0.00,,,0.00,VWS V14.01,2013-03-20 22:35:00,
2013-03-20 17:40:00,25.9,6.0,28.82,WNW,292,16.3,19.5,42,0.00,,,0.00,VWS V14.01,2013-03-20 22:40:00,
2013-03-20 17:45:00,25.2,5.8,28.82,WNW,292,7.4,18.1,43,0.00,,,0.00,VWS V14.01,2013-03-20 22:45:00,
2013-03-20 17:50:00,25.0,5.7,28.82,NW,315,10.3,15.9,43,0.00,,,0.00,VWS V14.01,2013-03-20 22:50:00,
2013-03-20 17:55:00,25.3,6.0,28.82,NW,315,7.8,15.2,43,0.00,,,0.00,VWS V14.01,2013-03-20 22:55:00,
2013-03-20 18:00:00,24.6,5.3,28.82,NW,315,9.6,15.9,43,0.00,,,0.00,VWS V14.01,2013-03-20 23:00:00,
2013-03-20 18:05:00,25.0,5.7,28.82,NW,315,7.8,21.9,43,0.00,,,0.00,VWS V14.01,2013-03-20 23:05:00,
2013-03-20 18:10:00,26.4,6.4,28.82,NW,315,12.5,13.2,42,0.00,,,0.00,VWS V14.01,2013-03-20 23:10:00,
2013-03-20 18:15:00,26.4,6.4,28.82,NNW,338,8.5,12.5,42,0.00,,,0.00,VWS V14.01,2013-03-20 23:15:00,
2013-03-20 18:20:00,26.1,6.1,28.82,WNW,292,15.4,15.4,42,0.00,,,0.00,VWS V14.01,2013-03-20 23:20:00,
2013-03-20 18:25:00,27.0,6.9,28.82,WNW,292,5.8,16.1,42,0.00,,,0.00,VWS V14.01,2013-03-20 23:25:00,
2013-03-20 18:30:00,25.5,5.6,28.82,NW,315,8.5,11.2,42,0.00,,,0.00,VWS V14.01,2013-03-20 23:30:00,
2013-03-20 18:35:00,25.7,5.8,28.82,NNW,338,8.1,10.3,42,0.00,,,0.00,VWS V14.01,2013-03-20 23:35:00,
2013-03-20 18:40:00,26.1,6.1,28.82,NNW,338,8.7,12.3,42,0.00,,,0.00,VWS V14.01,2013-03-20 23:40:00,
2013-03-20 18:45:00,25.9,6.0,28.82,NNW,338,12.3,14.1,42,0.00,,,0.00,VWS V14.01,2013-03-20 23:45:00,
2013-03-20 18:50:00,26.1,6.1,28.82,NW,315,6.5,12.3,42,0.00,,,0.00,VWS V14.01,2013-03-20 23:50:00,
2013-03-20 18:55:00,26.1,6.1,28.82,NNW,338,6.5,11.0,42,0.00,,,0.00,VWS V14.01,2013-03-20 23:55:00,
2013-03-20 19:00:00,25.5,5.6,28.82,NNW,338,10.3,10.5,42,0.00,,,0.00,VWS V14.01,2013-03-21 00:00:00,
2013-03-20 19:05:00,24.8,5.0,28.82,NNW,338,6.5,11.0,42,0.00,,,0.00,VWS V14.01,2013-03-21 00:05:00,
2013-03-20 19:10:00,23.7,4.5,28.82,NNW,338,6.3,11.0,43,0.00,,,0.00,VWS V14.01,2013-03-21 00:10:00,
2013-03-20 19:15:00,24.3,5.0,28.82,NNE,22,8.7,8.7,43,0.00,,,0.00,VWS V14.01,2013-03-21 00:15:00,
2013-03-20 19:20:00,23.9,4.7,28.82,NW,315,9.0,9.4,43,0.00,,,0.00,VWS V14.01,2013-03-21 00:20:00,
2013-03-20 19:25:00,23.0,3.8,28.82,NW,315,6.0,11.0,43,0.00,,,0.00,VWS V14.01,2013-03-21 00:25:00,
2013-03-20 19:30:00,22.6,3.5,28.82,NNW,338,6.5,10.5,43,0.00,,,0.00,VWS V14.01,2013-03-21 00:30:00,
2013-03-20 19:35:00,21.9,3.4,28.82,NNW,338,5.4,8.5,44,0.00,,,0.00,VWS V14.01,2013-03-21 00:35:00,
2013-03-20 19:40:00,21.7,3.7,28.82,NNW,338,5.4,8.7,45,0.00,,,0.00,VWS V14.01,2013-03-21 00:40:00,
2013-03-20 19:45:00,21.6,4.0,28.82,NNW,338,5.8,7.6,46,0.00,,,0.00,VWS V14.01,2013-03-21 00:45:00,
2013-03-20 19:50:00,21.2,4.6,28.82,WNW,292,4.0,7.2,48,0.00,,,0.00,VWS V14.01,2013-03-21 00:50:00,
2013-03-20 19:55:00,21.0,4.9,28.82,NNW,338,5.6,8.1,49,0.00,,,0.00,VWS V14.01,2013-03-21 00:55:00,
2013-03-20 20:00:00,21.0,4.9,28.82,NNW,338,5.4,7.8,49,0.00,,,0.00,VWS V14.01,2013-03-21 01:00:00,
2013-03-20 20:05:00,20.8,5.6,28.82,NW,315,5.6,7.8,51,0.00,,,0.00,VWS V14.01,2013-03-21 01:05:00,
2013-03-20 20:10:00,20.7,6.2,28.82,NNW,338,4.7,6.5,53,0.00,,,0.00,VWS V14.01,2013-03-21 01:10:00,
2013-03-20 20:15:00,20.5,6.1,28.82,WNW,292,5.4,7.2,53,0.00,,,0.00,VWS V14.01,2013-03-21 01:15:00,
2013-03-20 20:20:00,20.3,5.9,28.82,NW,315,4.9,6.7,53,0.00,,,0.00,VWS V14.01,2013-03-21 01:20:00,
2013-03-20 20:25:00,20.3,5.5,28.82,NNW,338,4.3,7.6,52,0.00,,,0.00,VWS V14.01,2013-03-21 01:25:00,
2013-03-20 20:30:00,20.1,5.7,28.82,NNW,338,4.3,6.0,53,0.00,,,0.00,VWS V14.01,2013-03-21 01:30:00,
2013-03-20 20:35:00,19.9,5.6,28.82,NW,315,3.8,6.3,53,0.00,,,0.00,VWS V14.01,2013-03-21 01:35:00,
2013-03-20 20:40:00,19.9,5.2,28.79,NNW,338,4.3,6.3,52,0.00,,,0.00,VWS V14.01,2013-03-21 01:40:00,
2013-03-20 20:45:00,19.9,5.2,28.79,NNW,338,4.9,6.3,52,0.00,,,0.00,VWS V14.01,2013-03-21 01:45:00,
2013-03-20 20:50:00,19.9,5.6,28.79,NNW,338,7.4,7.4,53,0.00,,,0.00,VWS V14.01,2013-03-21 01:50:00,
2013-03-20 20:55:00,19.8,5.8,28.79,NNW,338,5.4,7.4,54,0.00,,,0.00,VWS V14.01,2013-03-21 01:55:00,
2013-03-20 21:00:00,19.6,6.1,28.79,NW,315,4.0,5.4,55,0.00,,,0.00,VWS V14.01,2013-03-21 02:00:00,
2013-03-20 21:05:00,19.4,5.9,28.79,NW,315,6.3,6.3,55,0.00,,,0.00,VWS V14.01,2013-03-21 02:05:00,
2013-03-20 21:10:00,19.4,5.9,28.82,NNW,338,7.4,7.4,55,0.00,,,0.00,VWS V14.01,2013-03-21 02:10:00,
2013-03-20 21:15:00,19.6,5.7,28.82,WNW,292,6.0,8.7,54,0.00,,,0.00,VWS V14.01,2013-03-21 02:15:00,
2013-03-20 21:20:00,19.4,5.1,28.82,NNW,338,5.4,6.7,53,0.00,,,0.00,VWS V14.01,2013-03-21 02:20:00,
2013-03-20 21:25:00,19.4,5.1,28.79,NNW,338,7.4,8.1,53,0.00,,,0.00,VWS V14.01,2013-03-21 02:25:00,
2013-03-20 21:30:00,19.2,4.9,28.79,NNW,338,4.3,7.6,53,0.00,,,0.00,VWS V14.01,2013-03-21 02:30:00,
2013-03-20 21:35:00,19.0,5.1,28.79,NNW,338,3.8,6.3,54,0.00,,,0.00,VWS V14.01,2013-03-21 02:35:00,
2013-03-20 21:40:00,18.9,5.0,28.79,NNW,338,5.6,6.5,54,0.00,,,0.00,VWS V14.01,2013-03-21 02:40:00,
2013-03-20 21:45:00,18.7,5.2,28.79,NNW,338,5.6,6.5,55,0.00,,,0.00,VWS V14.01,2013-03-21 02:45:00,
2013-03-20 21:50:00,18.5,5.0,28.79,NNW,338,4.9,6.5,55,0.00,,,0.00,VWS V14.01,2013-03-21 02:50:00,
2013-03-20 21:55:00,18.3,4.5,28.82,NNW,338,3.4,5.8,54,0.00,,,0.00,VWS V14.01,2013-03-21 02:55:00,
2013-03-20 22:00:00,18.3,4.5,28.82,NNW,338,4.9,5.6,54,0.00,,,0.00,VWS V14.01,2013-03-21 03:00:00,
2013-03-20 22:05:00,18.1,4.7,28.82,NNW,338,5.4,6.0,55,0.00,,,0.00,VWS V14.01,2013-03-21 03:05:00,
2013-03-20 22:10:00,18.0,4.5,28.79,NNW,338,3.8,5.4,55,0.00,,,0.00,VWS V14.01,2013-03-21 03:10:00,
2013-03-20 22:15:00,17.6,4.6,28.79,NNW,338,3.8,5.4,56,0.00,,,0.00,VWS V14.01,2013-03-21 03:15:00,
2013-03-20 22:20:00,17.6,5.0,28.79,NNW,338,3.8,4.9,57,0.00,,,0.00,VWS V14.01,2013-03-21 03:20:00,
2013-03-20 22:25:00,17.4,4.8,28.79,NNW,338,3.8,5.8,57,0.00,,,0.00,VWS V14.01,2013-03-21 03:25:00,
2013-03-20 22:30:00,17.2,4.6,28.79,NNW,338,4.3,5.4,57,0.00,,,0.00,VWS V14.01,2013-03-21 03:30:00,
2013-03-20 22:35:00,17.1,4.1,28.79,North,0,4.0,5.4,56,0.00,,,0.00,VWS V14.01,2013-03-21 03:35:00,
2013-03-20 22:40:00,16.9,3.9,28.82,NNW,338,3.1,5.4,56,0.00,,,0.00,VWS V14.01,2013-03-21 03:40:00,
2013-03-20 22:45:00,16.9,3.9,28.82,NNW,338,5.6,5.6,56,0.00,,,0.00,VWS V14.01,2013-03-21 03:45:00,
2013-03-20 22:50:00,16.7,3.3,28.82,NNW,338,3.8,7.2,55,0.00,,,0.00,VWS V14.01,2013-03-21 03:50:00,
2013-03-20 22:55:00,16.5,3.6,28.82,North,0,4.0,6.5,56,0.00,,,0.00,VWS V14.01,2013-03-21 03:55:00,
2013-03-20 23:00:00,16.2,3.2,28.82,NNW,338,2.9,4.7,56,0.00,,,0.00,VWS V14.01,2013-03-21 04:00:00,
2013-03-20 23:05:00,16.0,3.1,28.82,NW,315,2.9,5.6,56,0.00,,,0.00,VWS V14.01,2013-03-21 04:05:00,
2013-03-20 23:10:00,16.0,3.1,28.79,NNW,338,2.9,5.6,56,0.00,,,0.00,VWS V14.01,2013-03-21 04:10:00,
2013-03-20 23:15:00,15.8,2.9,28.79,NNW,338,1.6,4.9,56,0.00,,,0.00,VWS V14.01,2013-03-21 04:15:00,
2013-03-20 23:20:00,15.3,2.4,28.79,NNE,22,1.6,3.4,56,0.00,,,0.00,VWS V14.01,2013-03-21 04:20:00,
2013-03-20 23:25:00,14.9,2.0,28.79,NNW,338,2.2,3.6,56,0.00,,,0.00,VWS V14.01,2013-03-21 04:25:00,
2013-03-20 23:30:00,14.7,1.9,28.79,NNW,338,2.9,3.6,56,0.00,,,0.00,VWS V14.01,2013-03-21 04:30:00,
2013-03-20 23:35:00,14.7,2.3,28.79,NNW,338,1.1,4.7,57,0.00,,,0.00,VWS V14.01,2013-03-21 04:35:00,
2013-03-20 23:40:00,14.5,2.1,28.79,North,0,2.5,3.8,57,0.00,,,0.00,VWS V14.01,2013-03-21 04:40:00,
2013-03-20 23:45:00,14.5,2.1,28.79,NNE,22,1.6,3.8,57,0.00,,,0.00,VWS V14.01,2013-03-21 04:45:00,
2013-03-20 23:50:00,14.2,1.8,28.79,NE,45,0.9,4.3,57,0.00,,,0.00,VWS V14.01,2013-03-21 04:50:00,
2013-03-20 23:55:00,14.0,1.6,28.79,NW,315,2.5,3.1,57,0.00,,,0.00,VWS V14.01,2013-03-21 04:55:00,